Aviation Digital Data Service (ADDS)

Output produced by METARs form (1142 UTC 19 June 2019)
found at http://www.aviationweather.gov/metar/data/
 
RCTP 191130Z 23012KT 9999 FEW020 BKN200 29/26 Q1006 NOSIG RMK A2972
TAF RCTP 191100Z 1912/2018 21012KT 9999 FEW020 SCT150 
     TEMPO 1912/1916 23017KT 
     TEMPO 1922/2004 24020KT 
     TEMPO 2012/2018 19006KT FEW015 BKN032 BKN060
       
RCMQ 191130Z 24007KT 9999 FEW012 SCT200 28/24 Q1008 NOSIG RMK A2979 RVR N/A
TAF RCMQ 191100Z 1912/2012 26010KT 9999 FEW012 SCT200 TX33/2005Z TN25/2021Z 
     BECMG 1914/1917 20004KT 
     BECMG 1919/1922 20010KT FEW010 BKN060 
     BECMG 2004/2007 FEW012 SCT060
       
RCFN 191130Z 02003KT 320V050 9999 FEW021 SCT120 BKN250 29/25 Q1006 NOSIG RMK A2972
TAF RCFN 191100Z 1912/2012 34005KT 9999 FEW020 SCT220 
     BECMG 2000/2002 15005KT 
     TEMPO 2006/2010 05008KT FEW012 FEW015TCU BKN032 
     BECMG 2010/2012 33005KT
       
RCKH 191130Z 31007KT 270V350 9999 FEW015 BKN220 30/26 Q1008 NOSIG RMK A2977
TAF RCKH 191100Z 1912/2018 31008KT 9999 FEW015 SCT220 
     BECMG 1914/1916 06005KT 
     BECMG 2000/2002 28006KT 
     TEMPO 2004/2010 30012KT 
     BECMG 2012/2014 08005KT
       
RCSS 191130Z 27007KT 9999 FEW020 SCT230 32/26 Q1006 NOSIG RMK A2972
TAF RCSS 191100Z 1912/2012 31005KT 9999 FEW020 SCT050 
     TEMPO 1912/1916 27010KT 
     TEMPO 2004/2010 28015G25KT FEW015 BKN032 BKN050
       
RCNN 191130Z 28003KT 9999 FEW012 BKN100 28/23 Q1008 NOSIG RMK A2977
TAF RCNN 191100Z 1912/2012 27008KT 9999 FEW012 SCT060 TX33/2006Z TN26/1920Z 
     BECMG 1913/1915 27002KT 
     BECMG 1920/1923 FEW012 BKN060 
     BECMG 2000/2003 27008KT FEW012 SCT060